Time;durP1;ratioP1;P1;durP2;ratioP2;P2;SDS_P1;SDS_P2;PMS_P1;PMS_P2;Temp;Humidity;BMP_temperature;BMP_pressure;BME280_temperature;BME280_humidity;BME280_pressure;Samples;Min_cycle;Max_cycle;Signal;HPM_P1;HPM_P2
2021/03/07 00:01:48;;;;;;;13.17;9.10;;;1.10;99.90;;;;;;5054920;28;20507;-81
2021/03/07 00:04:13;;;;;;;10.57;9.53;;;1.30;99.90;;;;;;5055909;28;20190;-81
2021/03/07 00:06:39;;;;;;;15.43;9.67;;;1.10;99.90;;;;;;5072994;28;20172;-81
2021/03/07 00:09:05;;;;;;;12.20;10.70;;;0.90;99.90;;;;;;5054785;28;20210;-82
2021/03/07 00:11:30;;;;;;;12.13;9.10;;;1.00;99.90;;;;;;5054279;28;20175;-81
2021/03/07 00:13:56;;;;;;;11.77;9.80;;;1.00;99.90;;;;;;5072713;28;20666;-81
2021/03/07 00:16:21;;;;;;;10.53;9.43;;;1.10;99.90;;;;;;5071355;28;20262;-81
2021/03/07 00:18:47;;;;;;;10.73;9.20;;;0.90;99.90;;;;;;5054562;28;20180;-81
2021/03/07 00:21:15;;;;;;;10.27;9.10;;;0.90;99.90;;;;;;5054277;28;20179;-81
2021/03/07 00:23:40;;;;;;;12.60;10.03;;;1.00;99.90;;;;;;5054479;28;20175;-81
2021/03/07 00:26:06;;;;;;;9.00;8.10;;;0.80;99.90;;;;;;5072385;28;20420;-81
2021/03/07 00:28:32;;;;;;;11.10;9.90;;;0.40;1.00;;;;;;5072324;28;20203;-81
2021/03/07 00:30:57;;;;;;;11.50;10.30;;;0.50;1.00;;;;;;5071131;28;20179;-81
2021/03/07 00:33:23;;;;;;;10.40;9.30;;;0.80;1.00;;;;;;5054237;28;20183;-81
2021/03/07 00:35:48;;;;;;;10.97;9.80;;;1.00;1.00;;;;;;5071079;28;20612;-81
2021/03/07 00:38:14;;;;;;;10.90;9.63;;;1.00;1.00;;;;;;5054339;28;20191;-80
2021/03/07 00:40:39;;;;;;;10.37;8.20;;;0.80;1.00;;;;;;5071999;28;20182;-81
2021/03/07 00:43:05;;;;;;;9.63;8.70;;;0.60;1.00;;;;;;5071085;28;20555;-81
2021/03/07 00:45:32;;;;;;;9.80;8.70;;;0.40;1.00;;;;;;5054913;28;20341;-81
2021/03/07 00:47:58;;;;;;;8.97;7.90;;;0.40;1.00;;;;;;5071803;28;20258;-81
2021/03/07 00:50:25;;;;;;;9.37;8.47;;;0.90;1.00;;;;;;5054050;28;20627;-81
2021/03/07 00:52:51;;;;;;;9.83;7.70;;;0.70;1.00;;;;;;5072149;28;20175;-81
2021/03/07 00:55:16;;;;;;;8.47;7.77;;;0.80;1.00;;;;;;5072050;28;20425;-81
2021/03/07 00:57:42;;;;;;;9.97;7.50;;;0.90;1.00;;;;;;5072058;28;20417;-81
2021/03/07 01:00:13;;;;;;;10.53;7.43;;;0.60;1.00;;;;;;5053915;28;20723;-81
2021/03/07 01:02:39;;;;;;;10.37;7.23;;;0.80;1.00;;;;;;5054050;28;20179;-81
2021/03/07 01:05:06;;;;;;;8.93;8.03;;;0.90;1.00;;;;;;5056968;28;20436;-81
2021/03/07 01:07:32;;;;;;;9.27;7.90;;;0.30;1.00;;;;;;5056955;28;20418;-82
2021/03/07 01:09:58;;;;;;;10.17;7.97;;;0.80;1.00;;;;;;5055905;28;20810;-81
2021/03/07 01:12:23;;;;;;;9.70;8.13;;;0.40;1.00;;;;;;5073898;28;20527;-81
2021/03/07 01:14:49;;;;;;;8.40;6.40;;;0.70;1.00;;;;;;5071970;28;20168;-81
2021/03/07 01:17:15;;;;;;;10.03;8.33;;;0.70;1.00;;;;;;5071714;28;20410;-81
2021/03/07 01:19:40;;;;;;;9.30;7.97;;;0.30;1.00;;;;;;5071587;28;21015;-81
2021/03/07 01:22:07;;;;;;;9.87;7.27;;;0.30;1.00;;;;;;5070410;28;20182;-81
2021/03/07 01:24:33;;;;;;;8.70;7.90;;;0.30;1.00;;;;;;5053729;28;20630;-81
2021/03/07 01:26:59;;;;;;;9.33;8.43;;;0.20;1.00;;;;;;5054473;28;20658;-81
2021/03/07 01:29:24;;;;;;;8.77;7.97;;;0.00;1.00;;;;;;5071695;28;20206;-81
2021/03/07 01:31:51;;;;;;;8.83;7.93;;;-0.10;1.00;;;;;;5053453;28;20234;-81
2021/03/07 01:34:16;;;;;;;13.60;7.47;;;0.30;1.00;;;;;;5053598;28;20179;-81
2021/03/07 01:36:42;;;;;;;7.03;6.30;;;0.20;1.00;;;;;;5053531;28;20418;-81
2021/03/07 01:39:07;;;;;;;8.63;7.73;;;-0.10;1.00;;;;;;5053495;28;20220;-81
2021/03/07 01:41:33;;;;;;;8.60;7.70;;;0.50;1.00;;;;;;5052975;28;20203;-81
2021/03/07 01:43:59;;;;;;;10.00;7.77;;;0.30;1.00;;;;;;5071650;28;20309;-81
2021/03/07 01:46:25;;;;;;;6.73;6.10;;;-0.10;1.00;;;;;;5053325;28;20452;-81
2021/03/07 01:48:51;;;;;;;8.07;7.27;;;0.30;1.00;;;;;;5070241;28;20202;-81
2021/03/07 01:51:18;;;;;;;9.67;7.27;;;0.40;1.00;;;;;;5053470;28;20171;-81
2021/03/07 01:53:44;;;;;;;7.40;6.70;;;0.30;1.00;;;;;;5053498;28;20425;-81
2021/03/07 01:56:11;;;;;;;9.60;7.53;;;0.30;1.00;;;;;;5053402;28;20750;-80
2021/03/07 01:58:38;;;;;;;8.73;7.70;;;0.40;1.00;;;;;;5053270;28;20464;-81
2021/03/07 02:01:05;;;;;;;9.73;8.73;;;0.30;1.00;;;;;;5056098;28;20429;-82
2021/03/07 02:03:31;;;;;;;8.87;7.23;;;0.30;1.00;;;;;;5057093;28;20417;-81
2021/03/07 02:05:57;;;;;;;8.77;6.83;;;0.30;1.00;;;;;;5075067;28;20473;-81
2021/03/07 02:08:22;;;;;;;6.80;6.10;;;0.20;1.00;;;;;;5059124;28;20202;-81
2021/03/07 02:10:53;;;;;;;7.73;7.03;;;0.40;1.00;;;;;;5075208;28;20535;-81
2021/03/07 02:13:24;;;;;;;7.27;6.13;;;0.30;1.00;;;;;;5075158;28;20458;-80
2021/03/07 02:15:54;;;;;;;7.73;6.00;;;0.40;1.00;;;;;;5075044;28;20420;-81
2021/03/07 02:18:20;;;;;;;6.63;6.03;;;0.40;1.00;;;;;;5074794;28;20427;-81
2021/03/07 02:20:58;;;;;;;6.50;5.77;;;0.50;1.00;;;;;;5057120;28;20784;-80
2021/03/07 02:23:29;;;;;;;5.97;5.40;;;0.50;1.00;;;;;;5057034;28;20182;-80
2021/03/07 02:25:55;;;;;;;7.33;6.03;;;0.30;1.00;;;;;;5056968;28;20445;-81
2021/03/07 02:28:23;;;;;;;6.90;5.43;;;0.20;1.00;;;;;;5056842;28;20464;-81
2021/03/07 02:30:49;;;;;;;6.83;6.10;;;-0.10;1.00;;;;;;5056943;28;20429;-81
2021/03/07 02:33:37;;;;;;;8.50;6.40;;;0.10;1.00;;;;;;5074650;28;20471;-80
2021/03/07 02:36:23;;;;;;;7.63;6.93;;;0.10;1.00;;;;;;5056752;28;20438;-81
2021/03/07 02:38:50;;;;;;;7.27;5.60;;;0.10;1.00;;;;;;5074790;28;20503;-80
2021/03/07 02:41:18;;;;;;;6.27;5.13;;;0.20;1.00;;;;;;5075102;28;20457;-81
2021/03/07 02:43:49;;;;;;;7.07;6.37;;;0.20;1.00;;;;;;5056548;28;20777;-80
2021/03/07 02:46:16;;;;;;;6.50;5.50;;;0.20;1.00;;;;;;5056440;28;20426;-81
2021/03/07 02:48:45;;;;;;;5.70;5.07;;;0.30;1.00;;;;;;5056573;28;20511;-81
2021/03/07 02:51:12;;;;;;;6.90;6.30;;;0.30;1.00;;;;;;5074891;28;20425;-80
2021/03/07 02:53:39;;;;;;;6.50;5.83;;;-0.10;1.00;;;;;;5056704;28;20443;-81
2021/03/07 02:56:10;;;;;;;6.20;5.60;;;0.00;1.00;;;;;;5074289;28;20982;-80
2021/03/07 02:58:38;;;;;;;6.60;5.90;;;0.10;1.00;;;;;;5074225;28;20988;-80
2021/03/07 03:01:10;;;;;;;7.13;6.20;;;0.00;1.00;;;;;;5056348;28;20467;-80
2021/03/07 03:03:41;;;;;;;7.50;6.80;;;0.10;1.00;;;;;;5074019;28;20540;-81
2021/03/07 03:06:09;;;;;;;5.97;5.43;;;0.10;1.00;;;;;;5073113;28;20425;-80
2021/03/07 03:08:37;;;;;;;10.10;6.40;;;0.10;1.00;;;;;;5073922;28;20461;-81
2021/03/07 03:11:04;;;;;;;8.33;6.10;;;0.00;1.00;;;;;;5055454;28;21070;-81
2021/03/07 03:13:32;;;;;;;11.23;6.67;;;0.30;1.00;;;;;;5074313;28;20414;-80
2021/03/07 03:15:59;;;;;;;6.77;6.07;;;0.00;1.00;;;;;;5074161;28;20507;-81
2021/03/07 03:18:28;;;;;;;7.10;6.40;;;0.10;1.00;;;;;;5073973;28;20420;-81
2021/03/07 03:20:57;;;;;;;14.43;6.50;;;0.20;1.00;;;;;;5055975;28;20508;-80
2021/03/07 03:23:24;;;;;;;8.00;5.80;;;-0.10;1.00;;;;;;5055842;28;20917;-81
2021/03/07 03:25:51;;;;;;;8.23;6.03;;;0.10;1.00;;;;;;5055911;28;20445;-81
2021/03/07 03:28:19;;;;;;;9.17;6.30;;;0.10;1.00;;;;;;5073728;28;20492;-81
2021/03/07 03:30:45;;;;;;;6.90;6.20;;;0.10;1.00;;;;;;5073504;28;20426;-80
2021/03/07 03:33:10;;;;;;;7.03;6.30;;;0.10;1.00;;;;;;5055790;28;20951;-80
2021/03/07 03:35:36;;;;;;;6.33;5.53;;;0.10;1.00;;;;;;5055691;28;20282;-80
2021/03/07 03:38:02;;;;;;;6.83;6.20;;;-0.10;1.00;;;;;;5055562;28;20226;-80
2021/03/07 03:40:28;;;;;;;8.23;5.87;;;0.10;1.00;;;;;;5055568;28;20179;-80
2021/03/07 03:42:58;;;;;;;7.07;5.50;;;0.10;1.00;;;;;;5072199;28;20200;-81
2021/03/07 03:45:25;;;;;;;8.23;5.50;;;-0.30;1.00;;;;;;5055381;28;20418;-81
2021/03/07 03:47:55;;;;;;;6.70;6.00;;;0.10;1.00;;;;;;5055559;28;20428;-81
2021/03/07 03:50:23;;;;;;;7.97;6.10;;;0.00;1.00;;;;;;5055664;28;20663;-80
2021/03/07 03:52:51;;;;;;;6.43;5.83;;;0.00;1.00;;;;;;5055431;28;20449;-80
2021/03/07 03:55:21;;;;;;;6.90;6.20;;;-0.30;1.00;;;;;;5073662;28;20425;-81
2021/03/07 03:57:50;;;;;;;7.27;6.57;;;-0.50;1.00;;;;;;5073014;28;21002;-80
2021/03/07 04:00:21;;;;;;;7.23;6.53;;;-0.20;1.00;;;;;;5071680;28;21137;-80
2021/03/07 04:02:47;;;;;;;7.67;6.10;;;-0.50;1.00;;;;;;5055113;28;20955;-81
2021/03/07 04:05:18;;;;;;;6.87;6.00;;;-0.30;1.00;;;;;;5073053;28;20425;-81
2021/03/07 04:07:46;;;;;;;7.90;7.03;;;-0.40;1.00;;;;;;5073120;28;20464;-81
2021/03/07 04:10:15;;;;;;;7.20;6.50;;;-0.30;1.00;;;;;;5072845;28;20519;-80
2021/03/07 04:12:41;;;;;;;6.20;5.70;;;-0.50;1.00;;;;;;5073485;28;20418;-81
2021/03/07 04:15:09;;;;;;;6.60;5.50;;;-0.40;5.00;;;;;;5073092;28;20437;-79
2021/03/07 04:17:35;;;;;;;6.47;5.80;;;-0.20;14.70;;;;;;5054814;28;20762;-81
2021/03/07 04:20:04;;;;;;;7.50;5.90;;;-0.10;6.70;;;;;;5072913;28;20473;-80
2021/03/07 04:22:29;;;;;;;8.17;6.70;;;-0.10;1.00;;;;;;5071395;28;20417;-80
2021/03/07 04:24:55;;;;;;;7.50;6.53;;;-0.40;1.00;;;;;;5072285;28;20425;-81
2021/03/07 04:27:22;;;;;;;7.20;6.33;;;-0.50;1.00;;;;;;5072382;28;20179;-81
2021/03/07 04:29:49;;;;;;;8.20;6.70;;;-0.50;10.00;;;;;;5072392;28;20289;-80
2021/03/07 04:32:15;;;;;;;8.60;7.33;;;-0.50;44.30;;;;;;5072375;28;20420;-81
2021/03/07 04:34:41;;;;;;;8.57;7.30;;;-0.30;70.00;;;;;;5072328;28;20982;-81
2021/03/07 04:37:08;;;;;;;8.03;5.70;;;-0.70;94.80;;;;;;5072490;28;20424;-80
2021/03/07 04:39:33;;;;;;;6.93;6.23;;;-0.50;99.90;;;;;;5054219;28;20437;-80
2021/03/07 04:42:00;;;;;;;6.77;6.07;;;-0.70;99.90;;;;;;5072376;28;20916;-80
2021/03/07 04:44:26;;;;;;;6.67;5.97;;;-0.50;99.90;;;;;;5072334;28;20258;-81
2021/03/07 04:46:52;;;;;;;8.70;7.00;;;-0.50;99.90;;;;;;5072007;28;20563;-81
2021/03/07 04:49:17;;;;;;;7.63;6.43;;;-0.60;99.90;;;;;;5071967;28;20207;-81
2021/03/07 04:51:43;;;;;;;6.53;5.90;;;-0.70;99.90;;;;;;5072271;28;20432;-80
2021/03/07 04:54:09;;;;;;;7.20;6.10;;;-0.80;99.90;;;;;;5073091;28;20163;-81
2021/03/07 04:56:34;;;;;;;8.57;7.50;;;-0.70;99.90;;;;;;5053975;28;20266;-81
2021/03/07 04:59:00;;;;;;;8.23;6.40;;;-0.80;99.90;;;;;;5072195;28;20222;-81
2021/03/07 05:01:25;;;;;;;7.83;6.63;;;-0.80;99.90;;;;;;5054053;28;20219;-80
2021/03/07 05:03:52;;;;;;;7.93;7.13;;;-0.80;99.90;;;;;;5072239;28;20186;-81
2021/03/07 05:06:19;;;;;;;10.87;7.33;;;-0.90;99.90;;;;;;5054204;28;20207;-80
2021/03/07 05:08:45;;;;;;;8.10;7.00;;;-0.90;99.90;;;;;;5071997;28;20460;-80
2021/03/07 05:11:10;;;;;;;10.70;7.13;;;-0.90;99.90;;;;;;5070860;28;20937;-80
2021/03/07 05:13:36;;;;;;;8.00;6.77;;;-0.90;99.90;;;;;;5071921;28;20250;-80
2021/03/07 05:16:02;;;;;;;7.43;6.57;;;-0.70;99.90;;;;;;5054014;28;20184;-80
2021/03/07 05:18:27;;;;;;;7.10;6.40;;;-0.60;1.00;;;;;;5072117;28;20167;-80
2021/03/07 05:20:53;;;;;;;7.10;6.40;;;-0.80;1.00;;;;;;5054068;28;20933;-81
2021/03/07 05:23:18;;;;;;;12.50;7.27;;;-0.70;1.00;;;;;;5053884;28;20178;-81
2021/03/07 05:25:44;;;;;;;9.33;6.73;;;-0.70;1.00;;;;;;5053494;28;20232;-80
2021/03/07 05:28:10;;;;;;;7.40;6.70;;;-0.80;1.00;;;;;;5071826;28;20174;-81
2021/03/07 05:30:38;;;;;;;8.83;7.30;;;-0.90;1.00;;;;;;5071743;28;20214;-80
2021/03/07 05:33:04;;;;;;;8.30;6.93;;;-0.70;1.00;;;;;;5053840;28;20187;-80
2021/03/07 05:35:29;;;;;;;7.27;6.40;;;-0.90;1.00;;;;;;5058278;28;20531;-80
2021/03/07 05:37:55;;;;;;;9.67;7.53;;;-1.10;1.00;;;;;;5075969;28;20912;-80
2021/03/07 05:40:21;;;;;;;6.60;6.00;;;-0.90;1.00;;;;;;5057829;28;20253;-80
2021/03/07 05:42:47;;;;;;;8.00;7.17;;;-0.90;1.00;;;;;;5075811;28;20167;-80
2021/03/07 05:45:12;;;;;;;10.50;7.97;;;-0.60;1.00;;;;;;5075744;28;20209;-80
2021/03/07 05:47:39;;;;;;;8.87;7.10;;;-0.70;1.00;;;;;;5075792;28;20769;-81
2021/03/07 05:50:06;;;;;;;7.97;7.00;;;-1.00;1.00;;;;;;5075665;28;20686;-80
2021/03/07 05:52:32;;;;;;;10.17;7.60;;;-1.00;1.00;;;;;;5075611;28;20417;-80
2021/03/07 05:54:58;;;;;;;8.53;7.53;;;-0.90;1.00;;;;;;5075668;28;20398;-80
2021/03/07 05:57:25;;;;;;;8.30;7.37;;;-0.70;1.00;;;;;;5075387;28;20417;-81
2021/03/07 05:59:51;;;;;;;8.60;7.10;;;-0.50;1.00;;;;;;5057576;28;20223;-80
2021/03/07 06:02:18;;;;;;;8.13;7.40;;;-0.70;1.00;;;;;;5075518;28;20428;-80
2021/03/07 06:04:50;;;;;;;11.83;9.00;;;-0.60;1.00;;;;;;5057272;28;20417;-81
2021/03/07 06:07:15;;;;;;;12.50;7.77;;;-0.60;1.00;;;;;;5075378;28;20413;-80
2021/03/07 06:09:41;;;;;;;9.90;8.90;;;-0.70;1.00;;;;;;5057177;28;21071;-80
2021/03/07 06:12:17;;;;;;;8.80;7.73;;;-0.70;1.00;;;;;;5057317;28;20198;-81
2021/03/07 06:14:45;;;;;;;11.77;8.13;;;-0.60;1.00;;;;;;5057374;28;20544;-80
2021/03/07 06:17:14;;;;;;;9.23;8.33;;;-0.40;1.00;;;;;;5057461;28;20467;-80
2021/03/07 06:19:54;;;;;;;7.70;6.97;;;-0.10;1.00;;;;;;5057070;28;21020;-81
2021/03/07 06:22:21;;;;;;;7.47;6.70;;;0.30;1.00;;;;;;5073624;28;20413;-80
2021/03/07 06:24:47;;;;;;;10.50;7.13;;;0.40;1.00;;;;;;5075028;28;20420;-81
2021/03/07 06:27:17;;;;;;;11.70;6.77;;;0.40;99.90;;;;;;5057012;28;20508;-81
2021/03/07 06:30:09;;;;;;;8.20;6.97;;;0.80;99.90;;;;;;5056871;28;20813;-80
2021/03/07 06:32:37;;;;;;;7.80;7.00;;;0.90;99.90;;;;;;5056705;28;20449;-80
2021/03/07 06:35:09;;;;;;;7.47;6.50;;;1.60;44.20;;;;;;5056752;28;20421;-80
2021/03/07 06:37:51;;;;;;;8.00;7.10;;;1.60;1.00;;;;;;5059342;28;20425;-80
2021/03/07 06:40:37;;;;;;;8.07;6.70;;;1.60;1.00;;;;;;5053915;28;20428;-80
2021/03/07 06:43:20;;;;;;;9.07;6.50;;;2.10;1.00;;;;;;5073667;28;20424;-81
2021/03/07 06:45:46;;;;;;;7.20;6.50;;;1.70;1.00;;;;;;5054750;28;20449;-80
2021/03/07 06:48:12;;;;;;;7.60;6.77;;;1.50;1.00;;;;;;5054508;28;20519;-80
2021/03/07 06:50:57;;;;;;;8.23;7.43;;;1.30;1.00;;;;;;5072532;28;20501;-81
2021/03/07 06:53:33;;;;;;;7.93;7.13;;;1.20;1.00;;;;;;5061672;28;20944;-81
2021/03/07 06:55:58;;;;;;;7.87;7.07;;;1.00;1.00;;;;;;5055170;28;20433;-81
2021/03/07 06:58:24;;;;;;;7.90;7.10;;;1.00;1.00;;;;;;5052024;28;20477;-81
2021/03/07 07:00:49;;;;;;;7.90;6.67;;;1.50;1.00;;;;;;5053019;28;20169;-81
2021/03/07 07:03:16;;;;;;;10.43;7.60;;;2.20;1.00;;;;;;5053104;28;20262;-81
2021/03/07 07:05:44;;;;;;;8.67;7.77;;;2.70;1.00;;;;;;5051947;28;20277;-81
2021/03/07 07:08:13;;;;;;;8.70;7.93;;;2.30;1.00;;;;;;5051777;28;20426;-81
2021/03/07 07:11:03;;;;;;;15.50;13.27;;;2.50;1.00;;;;;;5053061;28;20833;-81
2021/03/07 07:13:31;;;;;;;13.70;9.80;;;2.50;1.00;;;;;;5053202;28;20453;-81
2021/03/07 07:16:05;;;;;;;9.27;8.37;;;2.90;1.00;;;;;;5051813;28;20843;-81
2021/03/07 07:18:33;;;;;;;10.07;9.07;;;3.40;1.00;;;;;;5053369;28;20455;-81
2021/03/07 07:21:00;;;;;;;8.73;7.83;;;4.10;1.00;;;;;;5053417;28;20409;-81
2021/03/07 07:23:27;;;;;;;8.77;7.87;;;4.20;1.00;;;;;;5051553;28;20422;-81
2021/03/07 07:25:53;;;;;;;10.63;7.53;;;4.20;99.90;;;;;;5051375;28;20822;-81
2021/03/07 07:28:19;;;;;;;8.43;7.80;;;4.60;99.90;;;;;;5052682;28;20465;-82
2021/03/07 07:30:54;;;;;;;9.97;9.07;;;4.90;99.90;;;;;;5051471;28;20482;-81
2021/03/07 07:33:32;;;;;;;10.00;9.10;;;4.80;99.90;;;;;;5052442;28;20414;-81
2021/03/07 07:35:59;;;;;;;9.10;8.30;;;5.10;99.90;;;;;;5052554;28;20422;-81
2021/03/07 07:38:26;;;;;;;9.77;9.07;;;5.50;99.90;;;;;;5053511;28;20450;-81
2021/03/07 07:40:51;;;;;;;9.60;8.90;;;5.90;99.90;;;;;;5053715;28;20415;-81
2021/03/07 07:43:17;;;;;;;8.57;7.90;;;6.30;99.90;;;;;;5055806;28;20435;-81
2021/03/07 07:45:43;;;;;;;9.93;8.57;;;6.30;99.90;;;;;;5052710;28;20184;-81
2021/03/07 07:48:08;;;;;;;9.20;8.50;;;6.50;99.90;;;;;;5052682;28;20191;-82
2021/03/07 07:50:36;;;;;;;10.20;9.40;;;6.90;99.90;;;;;;5051344;28;20219;-82
2021/03/07 07:53:26;;;;;;;9.90;9.20;;;6.60;99.90;;;;;;5052753;28;20418;-81
2021/03/07 07:55:53;;;;;;;10.27;9.53;;;6.60;99.90;;;;;;5050548;28;20430;-81
2021/03/07 07:58:37;;;;;;;10.00;9.10;;;7.40;99.90;;;;;;5050214;28;20458;-82
2021/03/07 08:01:06;;;;;;;9.00;8.30;;;8.60;99.90;;;;;;5051865;28;20426;-81
2021/03/07 08:03:44;;;;;;;10.37;9.47;;;8.80;99.90;;;;;;5050445;28;20449;-82
2021/03/07 08:06:11;;;;;;;8.90;8.13;;;9.80;99.90;;;;;;5051848;28;20422;-81
2021/03/07 08:08:41;;;;;;;10.63;9.73;;;9.80;99.90;;;;;;5051276;28;20505;-82
2021/03/07 08:11:27;;;;;;;14.60;10.90;;;9.50;99.90;;;;;;5050685;28;20430;-81
2021/03/07 08:13:54;;;;;;;10.17;9.40;;;9.70;99.90;;;;;;5051493;28;20414;-82
2021/03/07 08:16:39;;;;;;;10.67;9.87;;;8.90;99.90;;;;;;5050810;28;20466;-80
2021/03/07 08:19:06;;;;;;;10.40;9.50;;;9.10;99.90;;;;;;5050331;28;20426;-82
2021/03/07 08:21:59;;;;;;;9.23;8.57;;;9.20;99.90;;;;;;5050329;28;20438;-82
2021/03/07 08:24:45;;;;;;;9.13;8.43;;;10.10;99.90;;;;;;5052376;28;20489;-82
2021/03/07 08:27:29;;;;;;;10.90;9.90;;;10.40;99.90;;;;;;5050058;28;20422;-82
2021/03/07 08:29:55;;;;;;;9.53;8.67;;;10.40;99.90;;;;;;5049923;28;20481;-81
2021/03/07 08:32:24;;;;;;;10.10;9.20;;;10.40;99.90;;;;;;5051506;28;20505;-82
2021/03/07 08:34:50;;;;;;;10.93;10.13;;;10.10;99.90;;;;;;5050961;28;20596;-82
2021/03/07 08:37:16;;;;;;;10.07;9.40;;;10.60;99.90;;;;;;5055483;28;20422;-82
2021/03/07 08:39:42;;;;;;;9.73;8.93;;;11.50;99.90;;;;;;5051388;28;20180;-82
2021/03/07 08:42:08;;;;;;;10.80;10.00;;;10.90;99.90;;;;;;5049900;28;20434;-82
2021/03/07 08:44:34;;;;;;;10.10;9.30;;;9.40;99.90;;;;;;5050060;28;20179;-82
2021/03/07 08:47:00;;;;;;;11.30;10.30;;;8.40;99.90;;;;;;5051232;28;20921;-82
2021/03/07 08:49:29;;;;;;;10.53;9.77;;;8.60;99.90;;;;;;5049962;28;20214;-82
2021/03/07 08:52:22;;;;;;;10.40;9.60;;;8.30;99.90;;;;;;5050811;28;20421;-82
2021/03/07 08:54:47;;;;;;;10.27;9.47;;;8.10;99.90;;;;;;5048269;28;20426;-82
2021/03/07 08:57:13;;;;;;;11.63;10.63;;;7.90;99.90;;;;;;5051166;28;20555;-82
2021/03/07 08:59:38;;;;;;;12.30;11.10;;;7.90;99.90;;;;;;5048914;28;20220;-81
2021/03/07 09:02:05;;;;;;;11.23;10.23;;;8.20;99.90;;;;;;5049452;28;20712;-81
2021/03/07 09:04:36;;;;;;;10.83;9.80;;;8.20;99.90;;;;;;5049946;28;20505;-82
2021/03/07 09:07:01;;;;;;;10.83;9.93;;;8.30;99.90;;;;;;5050615;28;20433;-82
2021/03/07 09:09:27;;;;;;;11.07;9.80;;;8.80;99.90;;;;;;5048911;28;20462;-82
2021/03/07 09:11:54;;;;;;;10.93;10.00;;;10.10;99.90;;;;;;5049849;28;20182;-82
2021/03/07 09:14:29;;;;;;;10.70;9.87;;;11.30;99.90;;;;;;5051051;28;20214;-82
2021/03/07 09:16:55;;;;;;;10.97;9.97;;;11.40;99.90;;;;;;5049606;28;20921;-82
2021/03/07 09:19:25;;;;;;;11.50;10.50;;;10.20;99.90;;;;;;5050056;28;20413;-82
2021/03/07 09:22:08;;;;;;;13.73;10.97;;;9.70;99.90;;;;;;5051066;28;20180;-82
2021/03/07 09:24:33;;;;;;;11.20;10.30;;;9.70;99.90;;;;;;5050941;28;20407;-82
2021/03/07 09:27:12;;;;;;;13.60;12.40;;;10.00;99.90;;;;;;5050770;28;20483;-82
2021/03/07 09:29:55;;;;;;;12.10;11.00;;;10.10;99.90;;;;;;5050748;28;20206;-82
2021/03/07 09:32:44;;;;;;;10.87;9.97;;;10.10;99.90;;;;;;5050881;28;20410;-82
2021/03/07 09:35:16;;;;;;;13.57;11.60;;;9.50;99.90;;;;;;5051701;28;20968;-82
2021/03/07 09:37:42;;;;;;;11.90;10.87;;;10.00;99.90;;;;;;5049510;28;20422;-82
2021/03/07 09:40:12;;;;;;;12.50;11.40;;;10.30;99.90;;;;;;5047655;28;20544;-82
2021/03/07 09:42:41;;;;;;;11.93;10.83;;;10.50;99.90;;;;;;5048874;28;20422;-82
2021/03/07 09:45:11;;;;;;;12.23;11.03;;;11.00;99.90;;;;;;5048585;28;20422;-82
2021/03/07 09:47:38;;;;;;;13.00;11.90;;;10.90;99.90;;;;;;5050537;28;20414;-82
2021/03/07 09:50:05;;;;;;;12.47;11.37;;;10.40;99.90;;;;;;5050630;28;20464;-82
2021/03/07 09:52:31;;;;;;;13.30;12.10;;;10.30;99.90;;;;;;5049219;28;20446;-82
2021/03/07 09:54:57;;;;;;;11.90;10.90;;;10.40;99.90;;;;;;5049250;28;20426;-82
2021/03/07 09:57:23;;;;;;;11.80;10.73;;;9.70;99.90;;;;;;5050222;28;20922;-82
2021/03/07 09:59:50;;;;;;;13.27;11.93;;;9.10;99.90;;;;;;5048928;28;20240;-81
2021/03/07 10:02:16;;;;;;;11.50;10.40;;;9.30;99.90;;;;;;5049614;28;20466;-81
2021/03/07 10:04:47;;;;;;;11.00;9.87;;;9.20;99.90;;;;;;5049060;28;20429;-80
2021/03/07 10:07:15;;;;;;;11.63;10.73;;;9.10;99.90;;;;;;5049731;28;20448;-83
2021/03/07 10:10:03;;;;;;;10.93;10.00;;;8.80;99.90;;;;;;5048828;28;20481;-82
2021/03/07 10:12:39;;;;;;;11.30;10.10;;;9.10;99.90;;;;;;5049685;28;21266;-81
2021/03/07 10:15:06;;;;;;;12.07;10.93;;;9.00;99.90;;;;;;5050638;28;20414;-82
2021/03/07 10:17:42;;;;;;;11.57;10.47;;;9.00;99.90;;;;;;5049074;28;20421;-82
2021/03/07 10:20:10;;;;;;;13.77;10.53;;;8.90;99.90;;;;;;5049311;28;20426;-82
2021/03/07 10:22:44;;;;;;;10.67;9.43;;;8.90;99.90;;;;;;5052735;28;20491;-81
2021/03/07 10:25:23;;;;;;;13.50;9.57;;;9.20;99.90;;;;;;5053909;28;20461;-82
2021/03/07 10:27:58;;;;;;;12.37;11.07;;;9.30;99.90;;;;;;5052749;28;20517;-81
2021/03/07 10:30:41;;;;;;;10.70;9.80;;;9.20;99.90;;;;;;5052571;28;20766;-81
2021/03/07 10:33:26;;;;;;;11.17;10.07;;;9.30;99.90;;;;;;5053458;28;20461;-81
2021/03/07 10:36:13;;;;;;;10.30;9.33;;;9.80;99.90;;;;;;5032721;28;20428;-81
2021/03/07 10:38:44;;;;;;;12.33;11.03;;;11.20;99.90;;;;;;5032616;28;20423;-82
2021/03/07 10:41:32;;;;;;;10.53;9.63;;;11.30;99.90;;;;;;5032197;28;20427;-80
2021/03/07 10:44:08;;;;;;;10.30;9.50;;;11.50;99.90;;;;;;5037436;28;21005;-80
2021/03/07 10:46:37;;;;;;;12.37;11.17;;;12.00;99.90;;;;;;5049960;28;20473;-82
2021/03/07 10:49:08;;;;;;;13.63;10.53;;;12.30;99.90;;;;;;5033378;28;20505;-82
2021/03/07 10:51:35;;;;;;;10.20;9.40;;;12.70;99.90;;;;;;5050062;28;20431;-82
2021/03/07 10:54:02;;;;;;;10.60;9.60;;;13.00;99.90;;;;;;5033431;28;20415;-82
2021/03/07 10:56:37;;;;;;;10.87;10.07;;;13.50;99.90;;;;;;5033086;28;20979;-82
2021/03/07 10:59:03;;;;;;;10.20;9.40;;;13.20;99.90;;;;;;5032943;28;20818;-82
2021/03/07 11:01:29;;;;;;;11.70;10.70;;;13.20;99.90;;;;;;5032713;28;20419;-81
2021/03/07 11:03:54;;;;;;;11.40;10.40;;;12.40;99.90;;;;;;5034101;28;20775;-82
2021/03/07 11:06:20;;;;;;;11.67;10.67;;;11.90;99.90;;;;;;5032685;28;20568;-82
2021/03/07 11:08:49;;;;;;;11.10;10.10;;;12.10;99.90;;;;;;5034383;28;20192;-81
2021/03/07 11:11:16;;;;;;;11.63;10.27;;;12.70;99.90;;;;;;5032812;28;20189;-82
2021/03/07 11:13:42;;;;;;;15.80;11.63;;;12.30;99.90;;;;;;5034049;28;20426;-81
2021/03/07 11:16:08;;;;;;;10.73;9.93;;;12.50;99.90;;;;;;5033154;28;20431;-82
2021/03/07 11:18:34;;;;;;;11.67;10.47;;;13.10;99.90;;;;;;5033987;28;20771;-82
2021/03/07 11:21:00;;;;;;;10.90;10.10;;;12.50;99.90;;;;;;5032463;28;20765;-82
2021/03/07 11:23:26;;;;;;;10.53;9.73;;;12.70;99.90;;;;;;5034337;28;20426;-82
2021/03/07 11:25:51;;;;;;;10.87;10.00;;;13.20;99.90;;;;;;5034122;28;20181;-82
2021/03/07 11:28:17;;;;;;;11.37;10.37;;;13.90;99.90;;;;;;5033871;28;20189;-82
2021/03/07 11:30:43;;;;;;;10.20;9.30;;;13.60;99.90;;;;;;5032093;28;20219;-82
2021/03/07 11:33:08;;;;;;;11.40;10.50;;;13.30;99.90;;;;;;5035372;28;20181;-82
2021/03/07 11:35:34;;;;;;;12.57;11.27;;;13.10;99.90;;;;;;5032431;28;20176;-82
2021/03/07 11:38:00;;;;;;;10.97;10.10;;;12.80;99.90;;;;;;5032369;28;20188;-82
2021/03/07 11:40:30;;;;;;;11.43;10.43;;;13.50;99.90;;;;;;5032244;28;20181;-82
2021/03/07 11:42:56;;;;;;;11.83;10.67;;;13.30;99.90;;;;;;5032168;28;20200;-82
2021/03/07 11:45:23;;;;;;;11.53;10.43;;;13.10;99.90;;;;;;5032040;28;20439;-82
2021/03/07 11:47:49;;;;;;;12.37;11.37;;;12.50;99.90;;;;;;5032209;28;20438;-82
2021/03/07 11:50:15;;;;;;;11.73;10.73;;;13.20;99.90;;;;;;5033528;28;20854;-83
2021/03/07 11:52:41;;;;;;;11.33;10.43;;;13.40;99.90;;;;;;5032477;28;20427;-82
2021/03/07 11:55:07;;;;;;;11.10;10.10;;;13.30;99.90;;;;;;5031956;28;20942;-82
2021/03/07 11:57:34;;;;;;;10.77;9.87;;;12.90;99.90;;;;;;5032248;28;20272;-81
2021/03/07 12:00:03;;;;;;;14.33;11.57;;;11.60;99.90;;;;;;5031845;28;20474;-82
2021/03/07 12:02:29;;;;;;;11.90;10.80;;;10.70;99.90;;;;;;5033164;28;20469;-82
2021/03/07 12:04:55;;;;;;;12.30;11.23;;;11.20;99.90;;;;;;5033280;28;20822;-81
2021/03/07 12:07:20;;;;;;;12.00;10.80;;;11.10;99.90;;;;;;5031823;28;20183;-81
2021/03/07 12:09:46;;;;;;;12.20;11.10;;;10.40;99.90;;;;;;5031699;28;20201;-82
2021/03/07 12:12:12;;;;;;;12.70;11.40;;;9.80;99.90;;;;;;5031812;28;20204;-82
2021/03/07 12:14:38;;;;;;;11.70;10.50;;;9.60;99.90;;;;;;5032783;28;20419;-82
2021/03/07 12:17:03;;;;;;;13.27;12.07;;;9.70;99.90;;;;;;5031699;28;20173;-81
2021/03/07 12:19:29;;;;;;;11.60;10.50;;;9.70;99.90;;;;;;5032975;28;20161;-82
2021/03/07 12:21:55;;;;;;;12.50;11.30;;;9.80;99.90;;;;;;5031663;28;20176;-81
2021/03/07 12:24:20;;;;;;;10.90;9.80;;;9.80;99.90;;;;;;5031618;28;20176;-81
2021/03/07 12:26:46;;;;;;;12.00;10.77;;;9.70;99.90;;;;;;5048523;28;20169;-80
2021/03/07 12:29:12;;;;;;;12.27;10.97;;;9.50;99.90;;;;;;5031659;28;20224;-81
2021/03/07 12:31:37;;;;;;;9.70;8.70;;;9.80;99.90;;;;;;5031653;28;20525;-81
2021/03/07 12:34:03;;;;;;;11.43;10.20;;;9.80;99.90;;;;;;5032399;28;20227;-81
2021/03/07 12:36:29;;;;;;;11.87;10.10;;;9.70;99.90;;;;;;5031408;28;20180;-81
2021/03/07 12:38:55;;;;;;;11.30;10.00;;;9.70;99.90;;;;;;5032578;28;20184;-81
2021/03/07 12:41:21;;;;;;;11.93;10.63;;;9.40;99.90;;;;;;5032349;28;20422;-81
2021/03/07 12:43:47;;;;;;;11.00;9.90;;;9.40;99.90;;;;;;5030302;28;20636;-82
2021/03/07 12:46:13;;;;;;;10.03;9.03;;;9.60;99.90;;;;;;5031294;28;20620;-82
2021/03/07 12:48:38;;;;;;;10.63;9.57;;;9.70;99.90;;;;;;5047772;28;20880;-81
2021/03/07 12:51:04;;;;;;;11.60;10.07;;;9.80;99.90;;;;;;5047427;28;20226;-82
2021/03/07 12:53:30;;;;;;;11.73;10.33;;;9.90;99.90;;;;;;5031046;28;20180;-81
2021/03/07 12:55:56;;;;;;;9.80;8.83;;;9.80;99.90;;;;;;5032327;28;20180;-82
2021/03/07 12:58:22;;;;;;;11.97;10.77;;;10.10;99.90;;;;;;5027276;28;20228;-82